Time;durP1;ratioP1;P1;durP2;ratioP2;P2;SDS_P1;SDS_P2;PMS_P1;PMS_P2;Temp;Humidity;BMP_temperature;BMP_pressure;BME280_temperature;BME280_humidity;BME280_pressure;Samples;Min_cycle;Max_cycle;Signal;HPM_P1;HPM_P2
2021/06/14 00:00:12;;;;;;;7.07;2.53;;;;;;;18.27;49.60;100585.69;2210636;40;20034;-86
2021/06/14 00:01:44;;;;;;;4.03;1.80;;;;;;;18.20;49.71;100580.16;2209480;40;20037;-85
2021/06/14 00:03:14;;;;;;;6.43;2.03;;;;;;;18.19;49.23;100583.03;2209272;40;20458;-85
2021/06/14 00:04:46;;;;;;;4.65;2.20;;;;;;;18.18;49.35;100581.38;2210507;40;20034;-85
2021/06/14 00:06:19;;;;;;;5.40;1.90;;;;;;;18.15;48.43;100587.97;2209229;40;20028;-84
2021/06/14 00:07:50;;;;;;;8.38;2.85;;;;;;;18.16;48.28;100581.53;2210748;40;20034;-86
2021/06/14 00:09:24;;;;;;;4.93;2.22;;;;;;;18.16;48.08;100584.22;2209138;40;20488;-84
2021/06/14 00:10:58;;;;;;;6.07;2.33;;;;;;;18.16;48.79;100573.41;2210484;40;20078;-87
2021/06/14 00:12:36;;;;;;;7.60;2.95;;;;;;;17.99;50.45;100575.44;2209217;40;20037;-84
2021/06/14 00:14:08;;;;;;;5.35;2.88;;;;;;;17.75;52.06;100576.41;2210636;40;20038;-85
2021/06/14 00:15:40;;;;;;;5.72;2.75;;;;;;;17.61;52.49;100576.16;2209097;40;20038;-84
2021/06/14 00:17:12;;;;;;;5.50;2.40;;;;;;;17.56;53.01;100583.09;2210623;40;20034;-84
2021/06/14 00:18:44;;;;;;;7.10;2.65;;;;;;;17.53;52.90;100578.91;2209110;40;20038;-85
2021/06/14 00:20:19;;;;;;;5.65;2.10;;;;;;;17.59;52.85;100582.75;2210541;40;20041;-84
2021/06/14 00:21:52;;;;;;;5.40;2.65;;;;;;;17.58;52.77;100572.97;2209170;40;20055;-83
2021/06/14 00:23:25;;;;;;;8.50;2.75;;;;;;;17.62;52.68;100577.81;2210601;40;20057;-85
2021/06/14 00:24:57;;;;;;;5.47;2.38;;;;;;;17.64;52.42;100574.09;2209141;40;20045;-83
2021/06/14 00:26:29;;;;;;;4.85;2.33;;;;;;;17.67;52.33;100577.28;2210359;40;20049;-85
2021/06/14 00:28:01;;;;;;;6.25;2.42;;;;;;;17.68;52.33;100576.28;2209011;40;20034;-85
2021/06/14 00:29:33;;;;;;;7.32;2.65;;;;;;;17.67;52.04;100565.63;2210484;40;20061;-85
2021/06/14 00:31:05;;;;;;;4.50;2.10;;;;;;;17.70;52.14;100574.25;2209059;40;20050;-84
2021/06/14 00:32:35;;;;;;;5.22;2.28;;;;;;;17.69;52.50;100569.00;2210400;40;20042;-82
2021/06/14 00:34:08;;;;;;;5.13;2.10;;;;;;;17.69;52.74;100577.97;2209024;40;20030;-83
2021/06/14 00:35:39;;;;;;;6.93;2.70;;;;;;;17.70;52.77;100573.38;2210351;40;20046;-84
2021/06/14 00:37:13;;;;;;;5.45;2.17;;;;;;;17.70;52.43;100570.69;2208953;40;20038;-81
2021/06/14 00:38:44;;;;;;;5.65;2.13;;;;;;;17.69;52.67;100567.16;2210454;40;20031;-85
2021/06/14 00:40:15;;;;;;;4.90;2.03;;;;;;;17.69;52.60;100569.00;2209280;40;20038;-85
2021/06/14 00:41:47;;;;;;;6.18;2.22;;;;;;;17.64;52.89;100572.22;2210650;40;20030;-82
2021/06/14 00:43:18;;;;;;;6.45;2.35;;;;;;;17.64;53.15;100563.28;2209012;40;20030;-85
2021/06/14 00:44:50;;;;;;;4.78;1.75;;;;;;;17.62;53.42;100572.41;2210218;40;20023;-86
2021/06/14 00:46:22;;;;;;;5.63;2.13;;;;;;;17.61;53.75;100565.34;2208899;40;20034;-84
2021/06/14 00:47:54;;;;;;;4.88;2.63;;;;;;;17.66;53.59;100567.50;2210381;40;20033;-86
2021/06/14 00:49:25;;;;;;;5.03;2.17;;;;;;;17.67;53.81;100565.63;2209219;40;20045;-85
2021/06/14 00:50:59;;;;;;;5.28;2.83;;;;;;;17.66;53.77;100558.56;2210451;40;20042;-85
2021/06/14 00:52:31;;;;;;;6.07;2.75;;;;;;;17.69;54.08;100558.19;2209100;40;20058;-85
2021/06/14 00:54:03;;;;;;;5.85;2.90;;;;;;;17.58;54.20;100554.88;2210497;40;20110;-86
2021/06/14 00:55:35;;;;;;;6.22;3.22;;;;;;;17.38;54.87;100557.19;2209122;40;20026;-86
2021/06/14 00:57:07;;;;;;;7.13;3.45;;;;;;;17.27;55.54;100553.03;2210446;40;20034;-86
2021/06/14 00:58:40;;;;;;;7.15;3.67;;;;;;;17.13;56.01;100561.84;2209117;40;20038;-86
2021/06/14 01:00:12;;;;;;;7.45;3.70;;;;;;;16.97;56.34;100554.66;2209082;40;20053;-87
2021/06/14 01:01:45;;;;;;;5.57;2.90;;;;;;;16.84;57.14;100557.88;2210360;40;20034;-86
2021/06/14 01:03:16;;;;;;;6.90;2.95;;;;;;;16.75;57.22;100553.53;2209395;40;20035;-86
2021/06/14 01:04:48;;;;;;;5.38;3.15;;;;;;;16.72;57.40;100559.28;2210650;40;20038;-85
2021/06/14 01:06:20;;;;;;;6.80;3.15;;;;;;;16.69;57.48;100550.50;2209113;40;20042;-85
2021/06/14 01:07:53;;;;;;;5.43;2.90;;;;;;;16.71;57.41;100547.63;2210151;40;20037;-85
2021/06/14 01:09:25;;;;;;;8.13;3.20;;;;;;;16.76;56.95;100549.81;2209130;40;20045;-87
2021/06/14 01:11:01;;;;;;;5.68;2.40;;;;;;;16.77;56.79;100538.00;2210434;40;20038;-86
2021/06/14 01:12:37;;;;;;;5.32;2.53;;;;;;;16.84;56.65;100547.06;2208956;40;20033;-85
2021/06/14 01:14:16;;;;;;;4.47;1.90;;;;;;;16.89;56.19;100544.72;2210466;40;20054;-85
2021/06/14 01:16:14;;;;;;;4.60;2.15;;;;;;;16.87;55.91;100554.84;2209033;40;20033;-87
2021/06/14 01:17:51;;;;;;;5.13;2.65;;;;;;;16.85;56.03;100554.16;2210433;40;20043;-84
2021/06/14 01:19:43;;;;;;;6.88;2.92;;;;;;;16.81;55.80;100555.53;2209044;40;20034;-83
2021/06/14 01:21:23;;;;;;;6.93;3.20;;;;;;;16.76;56.01;100552.50;2208945;40;20042;-84
2021/06/14 01:27:53;;;;;;;6.55;3.22;;;;;;;16.58;57.08;100558.97;2209462;40;20034;-84
2021/06/14 01:29:26;;;;;;;5.32;2.55;;;;;;;16.48;57.40;100566.41;2210834;40;20035;-85
2021/06/14 01:42:16;;;;;;;5.50;2.55;;;;;;;16.25;58.19;100537.41;2196835;40;21318;-82
2021/06/14 01:43:49;;;;;;;8.85;3.00;;;;;;;16.17;58.47;100534.72;2171125;40;20126;-85
2021/06/14 01:45:23;;;;;;;6.78;2.53;;;;;;;16.10;58.98;100536.41;2160951;40;20037;-84
2021/06/14 01:46:58;;;;;;;5.68;2.75;;;;;;;16.07;59.35;100540.31;2208090;40;20026;-84
2021/06/14 01:48:30;;;;;;;4.38;2.90;;;;;;;16.05;59.31;100537.78;2208020;40;20031;-83
2021/06/14 01:50:04;;;;;;;4.88;2.47;;;;;;;16.03;59.30;100534.41;2210148;40;20065;-83
2021/06/14 01:51:39;;;;;;;7.63;3.63;;;;;;;16.04;59.56;100533.41;2202606;40;20042;-85
2021/06/14 01:53:13;;;;;;;8.55;3.15;;;;;;;16.05;59.55;100532.41;2203330;40;20351;-81
2021/06/14 01:54:45;;;;;;;9.45;3.67;;;;;;;16.05;59.66;100540.47;2202394;40;20087;-84
2021/06/14 01:56:17;;;;;;;9.52;3.58;;;;;;;15.98;60.13;100534.06;2203612;40;20035;-84
2021/06/14 01:57:50;;;;;;;12.73;3.28;;;;;;;15.90;60.42;100543.00;2202164;40;20047;-82
2021/06/14 01:59:26;;;;;;;7.53;3.30;;;;;;;15.86;60.69;100538.94;2203482;40;20046;-80
2021/06/14 02:01:00;;;;;;;8.80;3.70;;;;;;;15.81;60.80;100537.72;2208363;40;20030;-82
2021/06/14 02:02:32;;;;;;;6.00;2.63;;;;;;;15.80;60.85;100538.72;2203730;40;20027;-83
2021/06/14 02:04:05;;;;;;;8.75;3.30;;;;;;;15.73;60.93;100542.09;2202448;40;20047;-82
2021/06/14 02:05:39;;;;;;;8.50;3.17;;;;;;;15.68;60.93;100533.66;2204013;40;20046;-82
2021/06/14 02:07:12;;;;;;;8.50;3.60;;;;;;;15.68;61.09;100536.34;2198483;40;20057;-82
2021/06/14 02:08:44;;;;;;;7.82;2.95;;;;;;;15.66;61.20;100537.53;2203613;40;20035;-82
2021/06/14 02:10:16;;;;;;;7.70;3.60;;;;;;;15.62;61.31;100528.94;2201875;40;20034;-82
2021/06/14 02:11:50;;;;;;;6.70;2.85;;;;;;;15.61;60.84;100543.44;2203548;40;20090;-82
2021/06/14 02:13:22;;;;;;;6.07;3.00;;;;;;;15.59;61.06;100542.75;2201767;40;20043;-80
2021/06/14 02:14:56;;;;;;;8.35;3.85;;;;;;;15.55;60.99;100536.00;2204171;40;20045;-81
2021/06/14 02:16:30;;;;;;;6.65;2.67;;;;;;;15.52;61.33;100541.72;2202540;40;20462;-80
2021/06/14 02:18:03;;;;;;;7.85;2.90;;;;;;;15.49;61.23;100536.69;2204232;40;20396;-80
2021/06/14 02:19:39;;;;;;;9.02;3.40;;;;;;;15.44;61.46;100540.72;2204864;40;20480;-80
2021/06/14 02:21:20;;;;;;;5.35;2.80;;;;;;;15.39;61.34;100532.28;2209962;40;20026;-81
2021/06/14 02:25:16;;;;;;;7.72;3.08;;;;;;;15.19;61.59;100537.09;2208808;40;19930;-82
2021/06/14 02:26:47;;;;;;;6.55;2.92;;;;;;;15.19;61.77;100537.09;2210562;40;20062;-80
2021/06/14 02:28:19;;;;;;;6.45;3.20;;;;;;;15.12;61.81;100536.06;2213575;40;20046;-80
2021/06/14 02:29:51;;;;;;;7.05;3.38;;;;;;;15.03;62.24;100537.88;2214041;40;20033;-82
2021/06/14 02:31:25;;;;;;;5.55;3.00;;;;;;;14.95;62.31;100541.38;2213995;40;20099;-81
2021/06/14 02:33:07;;;;;;;6.25;3.20;;;;;;;15.01;62.36;100561.44;2216956;40;20041;-82
2021/06/14 02:34:56;;;;;;;7.28;3.63;;;;;;;14.94;62.60;100555.00;2215652;40;20040;-81
2021/06/14 02:36:28;;;;;;;8.98;3.53;;;;;;;14.81;62.93;100544.66;2215441;40;20042;-84
2021/06/14 02:38:02;;;;;;;6.78;3.60;;;;;;;14.72;63.19;100557.25;2216237;40;20088;-82
2021/06/14 02:39:36;;;;;;;6.43;3.33;;;;;;;14.68;63.35;100558.56;2211763;40;20057;-82
2021/06/14 02:41:08;;;;;;;6.43;2.95;;;;;;;14.66;63.27;100552.47;2212691;40;20050;-78
2021/06/14 02:42:45;;;;;;;6.95;2.92;;;;;;;14.70;63.18;100553.00;2207684;40;20054;-80
2021/06/14 02:44:42;;;;;;;5.30;2.95;;;;;;;14.68;63.16;100546.97;2209483;40;20072;-81
2021/06/14 02:46:14;;;;;;;7.60;3.80;;;;;;;14.65;63.21;100551.63;2206340;40;20323;-79
2021/06/14 02:48:17;;;;;;;7.13;2.97;;;;;;;14.63;63.31;100552.78;2207723;40;20050;-80
2021/06/14 02:50:16;;;;;;;6.28;3.17;;;;;;;14.63;63.44;100560.88;2199447;40;20430;-81
2021/06/14 02:54:33;;;;;;;6.55;2.65;;;;;;;14.56;63.42;100546.34;2202879;40;20039;-82
2021/06/14 02:56:24;;;;;;;9.05;3.20;;;;;;;14.52;63.36;100553.88;2204369;40;20031;-81
2021/06/14 02:58:09;;;;;;;;;;;;;;;14.45;63.80;100550.16;2204701;40;20403;-81
2021/06/14 02:59:43;;;;;;;6.30;3.25;;;;;;;14.41;63.91;100548.75;2203610;40;20200;-81
2021/06/14 03:01:16;;;;;;;5.85;3.17;;;;;;;14.36;64.08;100546.53;2201957;40;20054;-80
2021/06/14 03:02:48;;;;;;;6.57;3.63;;;;;;;14.33;64.46;100552.25;2210910;40;20070;-79
2021/06/14 03:04:23;;;;;;;5.13;2.80;;;;;;;14.28;64.50;100547.34;2214340;40;20052;-81
2021/06/14 03:05:55;;;;;;;6.80;2.72;;;;;;;14.32;64.52;100550.56;2212901;40;20030;-79
2021/06/14 03:07:28;;;;;;;20.25;4.05;;;;;;;14.37;64.50;100548.25;2206340;40;20082;-79
2021/06/14 03:09:02;;;;;;;11.05;3.45;;;;;;;14.37;64.51;100542.84;2207150;40;20046;-79
2021/06/14 03:10:35;;;;;;;14.90;3.78;;;;;;;14.43;64.42;100541.38;2205551;40;20046;-78
2021/06/14 03:12:08;;;;;;;22.90;4.32;;;;;;;14.44;64.38;100548.47;2205941;40;20038;-79
2021/06/14 03:13:45;;;;;;;12.15;3.95;;;;;;;14.40;64.38;100542.56;2199255;40;20079;-80
2021/06/14 03:15:16;;;;;;;6.90;2.92;;;;;;;14.38;64.57;100539.16;2206488;40;20034;-80
2021/06/14 03:16:48;;;;;;;7.10;3.25;;;;;;;14.38;64.53;100533.78;2207607;40;20258;-80
2021/06/14 03:18:24;;;;;;;9.93;3.78;;;;;;;14.45;64.41;100534.84;2205516;40;20114;-79
2021/06/14 03:19:57;;;;;;;9.38;3.42;;;;;;;14.50;64.37;100537.06;2212919;40;20026;-79
2021/06/14 03:21:31;;;;;;;6.97;3.28;;;;;;;14.54;64.00;100533.06;2207705;40;20046;-79
2021/06/14 03:23:04;;;;;;;8.77;3.88;;;;;;;14.54;64.07;100530.38;2208873;40;20080;-79
2021/06/14 03:24:36;;;;;;;8.10;3.20;;;;;;;14.57;64.00;100526.50;2208187;40;20034;-79
2021/06/14 03:26:11;;;;;;;13.00;4.22;;;;;;;14.56;64.08;100530.19;2209654;40;20035;-80
2021/06/14 03:27:50;;;;;;;11.45;3.30;;;;;;;14.51;64.23;100526.16;2208211;40;20041;-79
2021/06/14 03:29:24;;;;;;;10.93;3.90;;;;;;;14.44;64.40;100532.31;2209121;40;20037;-79
2021/06/14 03:30:57;;;;;;;12.45;4.28;;;;;;;14.27;64.66;100526.84;2207998;40;20038;-78
2021/06/14 03:32:30;;;;;;;9.70;3.53;;;;;;;14.16;64.89;100529.78;2209879;40;20053;-81
2021/06/14 03:34:02;;;;;;;10.05;4.50;;;;;;;14.06;65.09;100535.25;2208080;40;20073;-79
2021/06/14 03:35:37;;;;;;;7.78;3.88;;;;;;;13.99;65.43;100529.66;2209568;40;20026;-78
2021/06/14 03:37:10;;;;;;;6.85;3.85;;;;;;;13.91;65.56;100526.03;2208025;40;20034;-78
2021/06/14 03:38:44;;;;;;;10.32;3.67;;;;;;;13.91;65.77;100532.28;2203763;40;20036;-79
2021/06/14 03:40:18;;;;;;;8.23;3.45;;;;;;;14.00;65.54;100531.34;2199117;40;20046;-80
2021/06/14 03:41:50;;;;;;;6.85;3.22;;;;;;;14.13;65.18;100543.50;2198286;40;20043;-79
2021/06/14 03:43:24;;;;;;;5.93;3.13;;;;;;;14.19;64.76;100543.75;2199462;40;20039;-80
2021/06/14 03:44:56;;;;;;;7.80;2.83;;;;;;;14.27;64.64;100539.41;2203137;40;20062;-79
2021/06/14 03:46:28;;;;;;;5.20;2.45;;;;;;;14.34;64.44;100543.19;2201412;40;20046;-78
2021/06/14 03:47:59;;;;;;;6.60;3.08;;;;;;;14.38;64.31;100531.09;2206658;40;20054;-79
2021/06/14 03:50:23;;;;;;;7.30;3.25;;;;;;;14.44;64.13;100529.63;2207959;40;20379;-83
2021/06/14 04:04:25;;;;;;;9.07;3.67;;;;;;;14.23;64.66;100528.13;2185347;40;20047;-82
2021/06/14 04:06:00;;;;;;;12.93;4.95;;;;;;;14.27;64.79;100523.28;2207127;40;20034;-80
2021/06/14 04:07:34;;;;;;;15.85;5.53;;;;;;;14.14;65.12;100515.63;2183826;40;20106;-79
2021/06/14 04:09:07;;;;;;;21.10;5.38;;;;;;;14.07;65.32;100526.19;2184128;40;20048;-80
2021/06/14 04:10:40;;;;;;;24.85;5.90;;;;;;;14.06;65.44;100515.56;2188221;40;20019;-80
2021/06/14 04:12:12;;;;;;;21.27;6.95;;;;;;;14.06;65.36;100519.13;2209226;40;20034;-82
2021/06/14 04:13:59;;;;;;;20.60;4.80;;;;;;;14.14;65.30;100523.69;2201366;40;20363;-82
2021/06/14 04:15:31;;;;;;;15.50;4.93;;;;;;;14.19;65.07;100513.34;2215913;40;20062;-81
2021/06/14 04:17:05;;;;;;;15.32;5.20;;;;;;;14.25;64.74;100511.88;2215470;40;20023;-82
2021/06/14 04:18:37;;;;;;;11.80;5.47;;;;;;;14.28;64.57;100514.22;2204784;40;20861;-81
2021/06/14 04:20:17;;;;;;;22.23;5.60;;;;;;;14.32;64.03;100503.00;2219902;40;20415;-81
2021/06/14 04:21:48;;;;;;;13.43;5.03;;;;;;;14.32;63.83;100507.53;2176919;40;20480;-78
2021/06/14 04:23:21;;;;;;;15.73;6.00;;;;;;;14.43;63.51;100499.22;2200383;40;20640;-80
2021/06/14 04:24:53;;;;;;;25.25;7.20;;;;;;;14.57;63.27;100499.59;2158157;40;20023;-80
2021/06/14 04:26:36;;;;;;;15.98;4.93;;;;;;;14.54;63.03;100490.00;2188598;40;20047;-81
2021/06/14 04:28:14;;;;;;;15.20;4.38;;;;;;;14.66;62.81;100493.25;2179146;40;20034;-83
2021/06/14 04:29:46;;;;;;;16.45;4.38;;;;;;;14.74;62.44;100500.56;2200605;40;20042;-82
2021/06/14 04:31:18;;;;;;;10.68;3.47;;;;;;;14.80;62.07;100495.41;2160875;40;20578;-80
2021/06/14 04:32:50;;;;;;;23.20;5.03;;;;;;;14.81;61.53;100502.47;2178602;40;20024;-81
2021/06/14 04:34:24;;;;;;;16.98;3.70;;;;;;;14.85;61.45;100494.91;2167059;40;20036;-79
2021/06/14 04:35:56;;;;;;;18.52;5.57;;;;;;;14.84;61.02;100490.53;2178118;40;20478;-80
2021/06/14 04:37:28;;;;;;;23.50;4.40;;;;;;;14.82;60.90;100484.47;2204070;40;20042;-80
2021/06/14 04:39:13;;;;;;;10.70;3.78;;;;;;;14.88;60.76;100499.13;2202986;40;20042;-81
2021/06/14 04:40:44;;;;;;;25.55;5.57;;;;;;;14.89;60.63;100493.56;2203264;40;20031;-82
2021/06/14 04:42:16;;;;;;;15.48;3.95;;;;;;;14.92;60.50;100482.47;2203281;40;20030;-81
2021/06/14 04:43:58;;;;;;;13.00;3.42;;;;;;;15.05;60.45;100487.41;2207481;40;20092;-82
2021/06/14 04:48:18;;;;;;;12.82;3.70;;;;;;;15.21;59.81;100491.16;2209736;40;20435;-82
2021/06/14 04:50:05;;;;;;;13.20;3.67;;;;;;;15.24;59.64;100485.44;2209187;40;20050;-82
2021/06/14 04:51:37;;;;;;;14.20;4.03;;;;;;;15.28;59.52;100493.00;2207627;40;20061;-80
2021/06/14 04:53:34;;;;;;;6.47;3.00;;;;;;;15.25;59.20;100487.13;2209153;40;20088;-82
2021/06/14 04:56:08;;;;;;;10.43;3.75;;;;;;;15.24;59.10;100490.81;2208152;40;20042;-82
2021/06/14 05:03:23;;;;;;;7.00;2.97;;;;;;;15.51;58.27;100486.16;2189465;40;20047;-82
2021/06/14 05:04:59;;;;;;;21.15;3.90;;;;;;;15.63;58.05;100478.59;2202853;40;20442;-82
2021/06/14 05:06:40;;;;;;;9.40;3.60;;;;;;;15.66;57.63;100478.25;2200950;40;20038;-83
2021/06/14 05:08:12;;;;;;;5.65;2.70;;;;;;;15.65;57.69;100477.41;2197339;40;20459;-82
2021/06/14 05:09:44;;;;;;;7.05;2.90;;;;;;;15.67;57.65;100485.31;2197439;40;20054;-82
2021/06/14 05:11:16;;;;;;;6.25;3.35;;;;;;;15.67;57.54;100479.94;2203145;40;20027;-82
2021/06/14 05:12:56;;;;;;;8.45;3.13;;;;;;;15.67;57.42;100478.09;2199546;40;20046;-82
2021/06/14 05:14:29;;;;;;;8.77;3.08;;;;;;;15.71;57.32;100479.44;2196776;40;20040;-81
2021/06/14 05:16:02;;;;;;;6.32;2.80;;;;;;;15.68;57.37;100471.69;2198772;40;20058;-82
2021/06/14 05:17:33;;;;;;;8.68;3.25;;;;;;;15.71;57.52;100478.59;2204697;40;20041;-80
2021/06/14 05:19:05;;;;;;;6.00;2.50;;;;;;;15.77;57.20;100474.41;2208048;40;20547;-79
2021/06/14 05:20:39;;;;;;;8.20;3.22;;;;;;;15.90;57.17;100474.75;2208886;40;20038;-80
2021/06/14 05:22:11;;;;;;;8.55;2.90;;;;;;;15.99;56.70;100479.13;2205451;40;20482;-80
2021/06/14 05:23:43;;;;;;;7.38;2.50;;;;;;;16.03;56.74;100485.88;2208528;40;20038;-79
2021/06/14 05:25:15;;;;;;;10.77;3.60;;;;;;;16.11;56.70;100481.47;2208007;40;20370;-80
2021/06/14 05:26:47;;;;;;;8.20;3.00;;;;;;;16.17;56.20;100470.00;2208722;40;20023;-81
2021/06/14 05:28:18;;;;;;;8.98;3.40;;;;;;;16.21;56.30;100472.19;2208060;40;20042;-81
2021/06/14 05:29:50;;;;;;;5.65;2.83;;;;;;;16.27;56.00;100473.34;2209242;40;20034;-79
2021/06/14 05:31:22;;;;;;;7.28;2.60;;;;;;;16.38;56.02;100473.00;2208474;40;20859;-79
2021/06/14 05:32:54;;;;;;;11.05;3.67;;;;;;;16.44;55.88;100471.47;2209022;40;20053;-80
2021/06/14 05:34:26;;;;;;;7.80;2.90;;;;;;;16.40;55.43;100461.19;2207668;40;20528;-81
2021/06/14 05:35:59;;;;;;;5.93;2.95;;;;;;;16.35;55.46;100473.31;2210095;40;20026;-81
2021/06/14 05:37:31;;;;;;;8.60;3.00;;;;;;;16.35;55.40;100470.63;2203904;40;20041;-84
2021/06/14 05:39:03;;;;;;;8.38;3.58;;;;;;;16.35;55.40;100473.31;2209975;40;20026;-82
2021/06/14 05:40:35;;;;;;;9.63;3.20;;;;;;;16.41;55.30;100470.97;2213600;40;20034;-81
2021/06/14 05:42:07;;;;;;;5.00;2.55;;;;;;;16.50;55.24;100464.53;2212759;40;20046;-81
2021/06/14 05:43:39;;;;;;;8.85;3.63;;;;;;;16.57;54.65;100473.63;2207627;40;20042;-79
2021/06/14 05:45:12;;;;;;;6.70;2.88;;;;;;;16.59;54.74;100468.03;2208924;40;20529;-80
2021/06/14 05:46:44;;;;;;;7.05;3.10;;;;;;;16.65;54.63;100470.06;2202746;40;20038;-79
2021/06/14 05:48:16;;;;;;;9.07;2.88;;;;;;;16.76;54.65;100468.81;2201279;40;20026;-80
2021/06/14 05:49:48;;;;;;;8.10;3.38;;;;;;;16.80;54.08;100459.38;2203037;40;20027;-82
2021/06/14 05:51:21;;;;;;;5.82;2.70;;;;;;;16.88;53.76;100466.56;2201927;40;20027;-81
2021/06/14 05:52:53;;;;;;;6.57;3.30;;;;;;;16.94;53.58;100464.03;2208230;40;20042;-79
2021/06/14 05:54:25;;;;;;;5.75;2.70;;;;;;;17.00;53.43;100462.50;2206645;40;20461;-81
2021/06/14 05:55:56;;;;;;;8.15;3.10;;;;;;;17.03;53.34;100466.69;2203685;40;20034;-82
2021/06/14 05:57:27;;;;;;;6.82;2.50;;;;;;;17.10;53.20;100462.25;2200983;40;20050;-83
2021/06/14 05:58:59;;;;;;;7.68;2.83;;;;;;;17.16;53.06;100464.28;2206699;40;20031;-81
2021/06/14 06:00:31;;;;;;;7.95;2.65;;;;;;;17.16;53.04;100464.28;2207689;40;20030;-81
2021/06/14 06:02:04;;;;;;;7.70;2.40;;;;;;;17.25;53.11;100467.75;2209618;40;20038;-83
2021/06/14 06:03:36;;;;;;;6.35;2.55;;;;;;;17.37;52.55;100460.09;2206727;40;20446;-85
2021/06/14 06:05:09;;;;;;;10.45;3.20;;;;;;;17.51;52.59;100480.94;2209381;40;20053;-82
2021/06/14 06:06:42;;;;;;;8.20;2.95;;;;;;;17.57;52.28;100461.28;2208137;40;20050;-82
2021/06/14 06:08:13;;;;;;;8.93;3.15;;;;;;;17.58;51.92;100465.66;2203715;40;20034;-81
2021/06/14 06:09:45;;;;;;;6.20;2.70;;;;;;;17.54;51.92;100469.75;2204380;40;20089;-81
2021/06/14 06:11:16;;;;;;;7.30;2.80;;;;;;;17.54;51.95;100467.06;2203409;40;20035;-81
2021/06/14 06:12:48;;;;;;;7.05;2.45;;;;;;;17.61;51.77;100459.91;2207609;40;20105;-81
2021/06/14 06:14:18;;;;;;;6.00;2.70;;;;;;;17.64;51.80;100460.56;2215924;40;20021;-80
2021/06/14 06:15:50;;;;;;;8.35;2.80;;;;;;;17.68;51.55;100457.31;2210881;40;20057;-79
2021/06/14 06:17:21;;;;;;;7.38;2.72;;;;;;;17.71;51.47;100456.13;2208916;40;20030;-80
2021/06/14 06:18:53;;;;;;;6.25;2.72;;;;;;;17.80;51.66;100459.59;2204873;40;20043;-82
2021/06/14 06:20:25;;;;;;;7.38;2.47;;;;;;;17.87;51.31;100450.56;2203288;40;20031;-83
2021/06/14 06:21:58;;;;;;;9.13;2.90;;;;;;;18.00;51.22;100460.78;2202185;40;20072;-80
2021/06/14 06:23:30;;;;;;;7.57;2.67;;;;;;;18.03;50.47;100454.19;2208520;40;20041;-81
2021/06/14 06:25:01;;;;;;;6.95;2.83;;;;;;;17.99;50.44;100447.44;2208421;40;20030;-82
2021/06/14 06:26:33;;;;;;;6.82;2.85;;;;;;;18.00;50.24;100454.53;2209635;40;20027;-82
2021/06/14 06:28:05;;;;;;;8.63;2.95;;;;;;;18.03;50.33;100443.38;2207870;40;20053;-83
2021/06/14 06:29:37;;;;;;;7.20;2.53;;;;;;;18.10;50.40;100441.59;2207882;40;20022;-81
2021/06/14 06:31:09;;;;;;;7.05;2.35;;;;;;;18.19;50.37;100445.88;2201984;40;20079;-83
2021/06/14 06:32:40;;;;;;;6.22;2.20;;;;;;;18.29;50.27;100444.78;2202709;40;20043;-80
2021/06/14 06:34:11;;;;;;;9.25;3.15;;;;;;;18.34;49.86;100436.94;2196585;40;20049;-81
2021/06/14 06:35:43;;;;;;;9.80;2.60;;;;;;;18.34;49.63;100440.50;2196031;40;20035;-84
2021/06/14 06:37:17;;;;;;;5.90;2.20;;;;;;;18.40;49.66;100433.50;2198524;40;20046;-80
2021/06/14 06:38:48;;;;;;;7.70;2.95;;;;;;;18.47;49.56;100434.41;2203491;40;20627;-83
2021/06/14 06:40:20;;;;;;;8.07;2.88;;;;;;;18.58;49.53;100429.56;2202008;40;20039;-83
2021/06/14 06:41:52;;;;;;;9.30;2.67;;;;;;;18.69;49.10;100427.22;2207540;40;20047;-80
2021/06/14 06:43:24;;;;;;;4.53;2.30;;;;;;;18.85;48.92;100426.16;2195152;40;20114;-81
2021/06/14 06:44:56;;;;;;;11.05;3.13;;;;;;;18.95;48.88;100425.03;2196889;40;20035;-82
2021/06/14 06:46:28;;;;;;;5.57;2.20;;;;;;;19.00;48.69;100428.00;2200925;40;20054;-81
2021/06/14 06:48:01;;;;;;;5.90;2.22;;;;;;;19.13;48.26;100421.91;2202782;40;20045;-81
2021/06/14 06:49:33;;;;;;;5.68;2.03;;;;;;;19.27;48.28;100428.31;2201626;40;20050;-84
2021/06/14 06:51:05;;;;;;;5.72;2.38;;;;;;;19.38;47.80;100421.53;2202689;40;20038;-82
2021/06/14 06:52:38;;;;;;;3.83;1.73;;;;;;;19.51;47.36;100412.69;2189241;40;20051;-80
2021/06/14 06:54:12;;;;;;;6.60;2.53;;;;;;;19.66;46.94;100421.56;2206758;40;20117;-82
2021/06/14 06:55:44;;;;;;;5.25;2.08;;;;;;;19.78;46.47;100421.91;2147264;41;20037;-81
2021/06/14 06:57:16;;;;;;;4.20;1.92;;;;;;;19.90;46.22;100423.03;2171165;41;20044;-81
2021/06/14 06:58:48;;;;;;;5.68;2.17;;;;;;;20.00;45.89;100422.72;2162231;41;20048;-80
2021/06/14 07:00:21;;;;;;;6.10;2.53;;;;;;;20.07;45.33;100420.88;2157658;41;20463;-82
2021/06/14 07:01:52;;;;;;;4.47;1.85;;;;;;;20.15;45.10;100417.19;2162902;41;20033;-83
2021/06/14 07:03:25;;;;;;;6.78;2.83;;;;;;;20.30;44.70;100425.22;2163300;41;20038;-82
2021/06/14 07:04:56;;;;;;;6.22;2.63;;;;;;;20.39;44.62;100415.00;2160447;41;20054;-82
2021/06/14 07:06:28;;;;;;;5.35;2.42;;;;;;;20.44;44.57;100415.25;2158454;41;20053;-79
2021/06/14 07:08:01;;;;;;;8.00;2.45;;;;;;;20.54;44.06;100417.59;2159431;41;20030;-84
2021/06/14 07:09:33;;;;;;;7.57;2.47;;;;;;;20.58;43.86;100418.88;2161596;41;20533;-83
2021/06/14 07:11:05;;;;;;;7.47;2.70;;;;;;;20.67;43.73;100425.81;2163001;41;20041;-82
2021/06/14 07:12:37;;;;;;;6.38;2.45;;;;;;;20.80;43.43;100418.78;2162809;40;20384;-82
2021/06/14 07:14:10;;;;;;;7.45;2.45;;;;;;;20.88;43.11;100411.28;2176838;41;20110;-81
2021/06/14 07:15:41;;;;;;;5.15;2.08;;;;;;;20.99;42.91;100409.84;2178801;40;20185;-81
2021/06/14 07:17:12;;;;;;;4.45;1.80;;;;;;;21.16;42.71;100414.94;2206185;40;20033;-82
2021/06/14 07:18:44;;;;;;;5.28;2.00;;;;;;;21.32;42.23;100411.81;2206474;40;20142;-82
2021/06/14 07:20:15;;;;;;;5.28;2.03;;;;;;;21.35;42.42;100418.72;2208109;40;20342;-81
2021/06/14 07:21:47;;;;;;;4.72;2.03;;;;;;;21.49;41.84;100425.00;2196060;40;20090;-83
2021/06/14 07:23:19;;;;;;;4.93;1.77;;;;;;;21.60;41.70;100424.44;2194215;40;20034;-81
2021/06/14 07:24:51;;;;;;;5.70;2.30;;;;;;;21.76;41.10;100414.16;2192980;40;20113;-81
2021/06/14 07:26:24;;;;;;;8.48;2.10;;;;;;;21.80;40.75;100415.44;2188182;40;20040;-81
2021/06/14 07:27:55;;;;;;;5.88;2.38;;;;;;;21.82;40.38;100416.06;2186557;40;20233;-82
2021/06/14 07:29:28;;;;;;;7.38;2.55;;;;;;;21.84;40.62;100410.41;2194244;40;20050;-81
2021/06/14 07:31:00;;;;;;;7.20;2.22;;;;;;;22.01;40.24;100416.25;2202674;40;20035;-80
2021/06/14 07:32:32;;;;;;;4.75;2.20;;;;;;;22.13;40.19;100417.25;2207324;40;20066;-82
2021/06/14 07:34:06;;;;;;;7.80;2.55;;;;;;;22.23;39.89;100409.50;2206228;40;20057;-81
2021/06/14 07:35:37;;;;;;;7.70;2.58;;;;;;;22.30;39.87;100406.75;2215636;40;20029;-82
2021/06/14 07:37:09;;;;;;;6.15;2.10;;;;;;;22.40;39.77;100414.50;2210520;40;20400;-82
2021/06/14 07:38:42;;;;;;;8.35;2.30;;;;;;;22.45;39.45;100406.53;2208376;40;20508;-82
2021/06/14 07:40:15;;;;;;;5.95;2.17;;;;;;;22.49;39.48;100407.75;2206782;40;20034;-81
2021/06/14 07:41:47;;;;;;;8.82;2.35;;;;;;;22.65;39.19;100400.19;2207593;40;20046;-82
2021/06/14 07:43:18;;;;;;;6.97;2.47;;;;;;;22.77;38.86;100398.41;2205138;40;20412;-80
2021/06/14 07:44:50;;;;;;;5.70;1.88;;;;;;;22.79;38.58;100400.94;2206785;40;20730;-82
2021/06/14 07:46:22;;;;;;;9.00;2.42;;;;;;;22.80;38.49;100391.72;2205616;40;20050;-82
2021/06/14 07:47:53;;;;;;;5.07;1.90;;;;;;;22.86;38.48;100396.28;2209369;40;20526;-82
2021/06/14 07:49:25;;;;;;;6.97;2.30;;;;;;;23.02;38.04;100397.69;2212751;40;20393;-84
2021/06/14 07:50:56;;;;;;;8.93;2.28;;;;;;;23.12;37.88;100395.31;2213360;40;20045;-82
2021/06/14 07:52:33;;;;;;;8.27;2.35;;;;;;;23.23;37.42;100390.25;2212322;40;20050;-84
2021/06/14 07:54:08;;;;;;;8.93;2.45;;;;;;;23.33;37.24;100396.06;2201939;40;20043;-83
2021/06/14 07:55:41;;;;;;;6.07;2.20;;;;;;;23.36;37.14;100395.59;2199937;40;20053;-82
2021/06/14 07:57:12;;;;;;;7.60;2.38;;;;;;;23.39;37.08;100403.34;2200261;40;20031;-81
2021/06/14 07:58:44;;;;;;;6.18;2.58;;;;;;;23.40;36.96;100391.38;2201547;40;20430;-82